sensor_id;sensor_type;location;lat;lon;timestamp;pressure;altitude;pressure_sealevel;temperature;humidity
13478;BME280;12598;62.382;17.344;2023-10-09T00:00:18;101191.88;;;20.47;25.61
13478;BME280;12598;62.382;17.344;2023-10-09T00:01:45;101182.66;;;20.49;25.90
13478;BME280;12598;62.382;17.344;2023-10-09T00:02:48;101180.03;;;20.40;25.63
13478;BME280;12598;62.382;17.344;2023-10-09T00:03:50;101187.66;;;20.44;26.10
13478;BME280;12598;62.382;17.344;2023-10-09T00:04:55;101190.47;;;20.43;26.14
13478;BME280;12598;62.382;17.344;2023-10-09T00:05:58;101185.28;;;20.41;25.73
13478;BME280;12598;62.382;17.344;2023-10-09T00:07:01;101186.25;;;20.40;25.60
13478;BME280;12598;62.382;17.344;2023-10-09T00:08:03;101196.16;;;20.40;26.30
13478;BME280;12598;62.382;17.344;2023-10-09T00:09:06;101193.63;;;20.38;25.82
13478;BME280;12598;62.382;17.344;2023-10-09T00:10:28;101191.16;;;20.45;26.26
13478;BME280;12598;62.382;17.344;2023-10-09T00:11:37;101187.97;;;20.41;25.92
13478;BME280;12598;62.382;17.344;2023-10-09T00:12:43;101192.34;;;20.42;26.14
13478;BME280;12598;62.382;17.344;2023-10-09T00:13:48;101177.81;;;20.35;26.14
13478;BME280;12598;62.382;17.344;2023-10-09T00:14:54;101184.41;;;20.41;26.24
13478;BME280;12598;62.382;17.344;2023-10-09T00:16:08;101188.94;;;20.40;26.03
13478;BME280;12598;62.382;17.344;2023-10-09T00:17:16;101169.34;;;20.30;26.33
13478;BME280;12598;62.382;17.344;2023-10-09T00:18:22;101189.94;;;20.39;25.68
13478;BME280;12598;62.382;17.344;2023-10-09T00:19:31;101179.78;;;20.33;26.12
13478;BME280;12598;62.382;17.344;2023-10-09T00:20:36;101181.66;;;20.33;26.03
13478;BME280;12598;62.382;17.344;2023-10-09T00:21:41;101186.53;;;20.37;25.74
13478;BME280;12598;62.382;17.344;2023-10-09T00:22:43;101182.34;;;20.35;26.24
13478;BME280;12598;62.382;17.344;2023-10-09T00:23:48;101186.03;;;20.34;25.76
13478;BME280;12598;62.382;17.344;2023-10-09T00:25:01;101182.19;;;20.36;25.47
13478;BME280;12598;62.382;17.344;2023-10-09T00:26:23;101181.72;;;20.41;26.14
13478;BME280;12598;62.382;17.344;2023-10-09T00:27:25;101179.78;;;20.33;25.79
13478;BME280;12598;62.382;17.344;2023-10-09T00:28:33;101183.19;;;20.35;25.65
13478;BME280;12598;62.382;17.344;2023-10-09T00:29:35;101173.59;;;20.33;26.07
13478;BME280;12598;62.382;17.344;2023-10-09T00:30:43;101176.09;;;20.34;25.96
13478;BME280;12598;62.382;17.344;2023-10-09T00:31:46;101169.66;;;20.27;26.13
13478;BME280;12598;62.382;17.344;2023-10-09T00:32:51;101167.38;;;20.32;25.93
13478;BME280;12598;62.382;17.344;2023-10-09T00:34:01;101179.78;;;20.33;25.62
13478;BME280;12598;62.382;17.344;2023-10-09T00:35:06;101172.75;;;20.32;25.51
13478;BME280;12598;62.382;17.344;2023-10-09T00:36:27;101167.06;;;20.35;26.05
13478;BME280;12598;62.382;17.344;2023-10-09T00:37:30;101163.69;;;20.33;25.66
13478;BME280;12598;62.382;17.344;2023-10-09T00:38:39;101164.00;;;20.30;26.14
13478;BME280;12598;62.382;17.344;2023-10-09T00:39:53;101156.09;;;20.29;26.06
13478;BME280;12598;62.382;17.344;2023-10-09T00:40:58;101168.53;;;20.30;25.80
13478;BME280;12598;62.382;17.344;2023-10-09T00:42:12;101164.00;;;20.30;25.85
13478;BME280;12598;62.382;17.344;2023-10-09T00:43:15;101174.72;;;20.30;25.94
13478;BME280;12598;62.382;17.344;2023-10-09T00:44:21;101173.03;;;20.29;26.24
13478;BME280;12598;62.382;17.344;2023-10-09T00:45:23;101151.91;;;20.17;26.23
13478;BME280;12598;62.382;17.344;2023-10-09T00:46:34;101165.47;;;20.25;26.11
13478;BME280;12598;62.382;17.344;2023-10-09T00:47:36;101164.47;;;20.26;25.78
13478;BME280;12598;62.382;17.344;2023-10-09T00:48:42;101165.75;;;20.22;25.94
13478;BME280;12598;62.382;17.344;2023-10-09T00:49:54;101164.47;;;20.26;25.89
13478;BME280;12598;62.382;17.344;2023-10-09T00:51:01;101165.28;;;20.26;25.70
13478;BME280;12598;62.382;17.344;2023-10-09T00:52:05;101164.28;;;20.27;25.59
13478;BME280;12598;62.382;17.344;2023-10-09T00:53:14;101162.59;;;20.26;25.75
13478;BME280;12598;62.382;17.344;2023-10-09T00:54:20;101165.28;;;20.26;25.61
13478;BME280;12598;62.382;17.344;2023-10-09T00:55:31;101164.59;;;20.24;26.37
13478;BME280;12598;62.382;17.344;2023-10-09T00:56:40;101172.53;;;20.26;26.19
13478;BME280;12598;62.382;17.344;2023-10-09T00:57:45;101160.09;;;20.25;26.21
13478;BME280;12598;62.382;17.344;2023-10-09T00:58:59;101166.97;;;20.27;25.65
13478;BME280;12598;62.382;17.344;2023-10-09T01:00:13;101168.84;;;20.27;26.26
13478;BME280;12598;62.382;17.344;2023-10-09T01:01:34;101156.09;;;20.29;25.95
13478;BME280;12598;62.382;17.344;2023-10-09T01:02:38;101161.59;;;20.27;25.76
13478;BME280;12598;62.382;17.344;2023-10-09T01:03:44;101162.59;;;20.26;25.97
13478;BME280;12598;62.382;17.344;2023-10-09T01:04:47;101152.63;;;20.19;26.07
13478;BME280;12598;62.382;17.344;2023-10-09T01:06:07;101149.41;;;20.15;25.81
13478;BME280;12598;62.382;17.344;2023-10-09T01:07:11;101165.16;;;20.28;25.80
13478;BME280;12598;62.382;17.344;2023-10-09T01:08:28;101166.16;;;20.27;25.99
13478;BME280;12598;62.382;17.344;2023-10-09T01:09:30;101159.41;;;20.23;25.92
13478;BME280;12598;62.382;17.344;2023-10-09T01:10:45;101161.91;;;20.24;26.36
13478;BME280;12598;62.382;17.344;2023-10-09T01:11:52;101160.91;;;20.25;25.84
13478;BME280;12598;62.382;17.344;2023-10-09T01:13:00;101155.84;;;20.22;25.89
13478;BME280;12598;62.382;17.344;2023-10-09T01:14:02;101155.03;;;20.22;26.46
13478;BME280;12598;62.382;17.344;2023-10-09T01:15:14;101159.41;;;20.23;26.29
13478;BME280;12598;62.382;17.344;2023-10-09T01:16:34;101167.97;;;20.26;26.22
13478;BME280;12598;62.382;17.344;2023-10-09T01:17:37;101150.53;;;20.13;25.83
13478;BME280;12598;62.382;17.344;2023-10-09T01:18:49;101156.16;;;20.19;26.25
13478;BME280;12598;62.382;17.344;2023-10-09T01:19:51;101156.84;;;20.21;26.19
13478;BME280;12598;62.382;17.344;2023-10-09T01:20:58;101154.78;;;20.15;26.06
13478;BME280;12598;62.382;17.344;2023-10-09T01:22:00;101154.78;;;20.15;26.04
13478;BME280;12598;62.382;17.344;2023-10-09T01:23:06;101158.16;;;20.17;25.87
13478;BME280;12598;62.382;17.344;2023-10-09T01:24:09;101157.28;;;20.17;26.11
13478;BME280;12598;62.382;17.344;2023-10-09T01:25:11;101154.22;;;20.12;26.33
13478;BME280;12598;62.382;17.344;2023-10-09T01:26:13;101160.28;;;20.14;25.78
13478;BME280;12598;62.382;17.344;2023-10-09T01:27:14;101155.78;;;20.14;26.00
13478;BME280;12598;62.382;17.344;2023-10-09T01:28:17;101161.28;;;20.13;26.33
13478;BME280;12598;62.382;17.344;2023-10-09T01:29:20;101148.03;;;20.11;26.28
13478;BME280;12598;62.382;17.344;2023-10-09T01:30:24;101154.09;;;20.13;nan
13478;BME280;12598;62.382;17.344;2023-10-09T01:31:26;101157.59;;;20.14;26.08
13478;BME280;12598;62.382;17.344;2023-10-09T01:32:28;101159.44;;;20.13;26.15
13478;BME280;12598;62.382;17.344;2023-10-09T01:33:31;101157.75;;;20.12;26.04
13478;BME280;12598;62.382;17.344;2023-10-09T01:34:37;101155.91;;;20.13;26.42
13478;BME280;12598;62.382;17.344;2023-10-09T01:35:46;101165.50;;;20.15;26.35
13478;BME280;12598;62.382;17.344;2023-10-09T01:36:53;101155.78;;;20.14;26.00
13478;BME280;12598;62.382;17.344;2023-10-09T01:37:57;101144.34;;;20.12;26.12
13478;BME280;12598;62.382;17.344;2023-10-09T01:39:00;101157.59;;;20.14;26.41
13478;BME280;12598;62.382;17.344;2023-10-09T01:40:09;101155.78;;;20.14;26.23
13478;BME280;12598;62.382;17.344;2023-10-09T01:41:38;101159.53;;;20.21;25.80
13478;BME280;12598;62.382;17.344;2023-10-09T01:42:48;101146.72;;;20.15;26.35
13478;BME280;12598;62.382;17.344;2023-10-09T01:43:50;101153.78;;;20.16;26.19
13478;BME280;12598;62.382;17.344;2023-10-09T01:44:57;101155.59;;;20.16;25.89
13478;BME280;12598;62.382;17.344;2023-10-09T01:46:12;101148.72;;;20.13;26.09
13478;BME280;12598;62.382;17.344;2023-10-09T01:47:17;101151.09;;;20.16;25.69
13478;BME280;12598;62.382;17.344;2023-10-09T01:48:23;101154.78;;;20.15;25.83
13478;BME280;12598;62.382;17.344;2023-10-09T01:49:26;101150.41;;;20.14;26.34
13478;BME280;12598;62.382;17.344;2023-10-09T01:50:33;101152.53;;;20.11;26.52
13478;BME280;12598;62.382;17.344;2023-10-09T01:51:37;101110.81;;;19.89;26.33
13478;BME280;12598;62.382;17.344;2023-10-09T01:52:40;101147.03;;;20.12;26.30
13478;BME280;12598;62.382;17.344;2023-10-09T01:53:44;101135.03;;;20.07;26.36
13478;BME280;12598;62.382;17.344;2023-10-09T01:54:51;101148.16;;;20.10;26.25
13478;BME280;12598;62.382;17.344;2023-10-09T01:55:53;101146.16;;;20.12;26.47
13478;BME280;12598;62.382;17.344;2023-10-09T01:56:57;101158.75;;;20.11;26.36
13478;BME280;12598;62.382;17.344;2023-10-09T01:57:59;101147.34;;;20.09;25.93
13478;BME280;12598;62.382;17.344;2023-10-09T01:59:07;101142.78;;;20.10;26.13
13478;BME280;12598;62.382;17.344;2023-10-09T02:00:11;101139.09;;;20.11;26.47
13478;BME280;12598;62.382;17.344;2023-10-09T02:01:18;101140.97;;;20.10;26.37
13478;BME280;12598;62.382;17.344;2023-10-09T02:02:21;101140.97;;;20.10;26.60
13478;BME280;12598;62.382;17.344;2023-10-09T02:03:32;101137.28;;;20.11;26.41
13478;BME280;12598;62.382;17.344;2023-10-09T02:04:38;101122.78;;;20.04;26.22
13478;BME280;12598;62.382;17.344;2023-10-09T02:05:42;101129.84;;;20.05;26.03
13478;BME280;12598;62.382;17.344;2023-10-09T02:06:44;101137.03;;;20.05;26.11
13478;BME280;12598;62.382;17.344;2023-10-09T02:07:45;101128.28;;;20.03;26.51
13478;BME280;12598;62.382;17.344;2023-10-09T02:08:54;101136.59;;;20.09;26.32
13478;BME280;12598;62.382;17.344;2023-10-09T02:09:57;101134.91;;;20.08;26.05
13478;BME280;12598;62.382;17.344;2023-10-09T02:10:59;101129.66;;;20.07;26.06
13478;BME280;12598;62.382;17.344;2023-10-09T02:12:04;101135.03;;;20.07;26.09
13478;BME280;12598;62.382;17.344;2023-10-09T02:13:06;101127.97;;;20.06;26.05
13478;BME280;12598;62.382;17.344;2023-10-09T02:14:09;101136.91;;;20.06;26.16
13478;BME280;12598;62.382;17.344;2023-10-09T02:15:27;101134.75;;;20.10;25.86
13478;BME280;12598;62.382;17.344;2023-10-09T02:16:47;101126.84;;;20.08;26.15
13478;BME280;12598;62.382;17.344;2023-10-09T02:18:12;101134.28;;;20.14;26.02
13478;BME280;12598;62.382;17.344;2023-10-09T02:19:23;101126.25;;;20.14;26.49
13478;BME280;12598;62.382;17.344;2023-10-09T02:20:33;101118.78;;;20.08;26.02
13478;BME280;12598;62.382;17.344;2023-10-09T02:21:39;101135.59;;;20.10;26.37
13478;BME280;12598;62.382;17.344;2023-10-09T02:22:46;101136.59;;;20.09;26.35
13478;BME280;12598;62.382;17.344;2023-10-09T02:23:48;101128.84;;;20.06;25.96
13478;BME280;12598;62.382;17.344;2023-10-09T02:24:53;101125.31;;;20.06;26.56
13478;BME280;12598;62.382;17.344;2023-10-09T02:26:01;101133.22;;;20.07;26.31
13478;BME280;12598;62.382;17.344;2023-10-09T02:27:09;101132.53;;;20.05;26.46
13478;BME280;12598;62.382;17.344;2023-10-09T02:28:11;101129.16;;;20.03;26.84
13478;BME280;12598;62.382;17.344;2023-10-09T02:29:21;101131.53;;;20.06;26.03
13478;BME280;12598;62.382;17.344;2023-10-09T02:30:26;101135.22;;;20.05;26.13
13478;BME280;12598;62.382;17.344;2023-10-09T02:31:31;101136.19;;;20.04;26.35
13478;BME280;12598;62.382;17.344;2023-10-09T02:32:43;101133.34;;;20.06;26.56
13478;BME280;12598;62.382;17.344;2023-10-09T02:33:45;101141.56;;;20.04;26.75
13478;BME280;12598;62.382;17.344;2023-10-09T02:34:46;101132.81;;;20.02;26.20
13478;BME280;12598;62.382;17.344;2023-10-09T02:35:48;101127.19;;;19.96;26.48
13478;BME280;12598;62.382;17.344;2023-10-09T02:36:53;101136.50;;;20.01;26.19
13478;BME280;12598;62.382;17.344;2023-10-09T02:38:07;101137.91;;;20.05;26.57
13478;BME280;12598;62.382;17.344;2023-10-09T02:39:10;101139.88;;;20.03;26.61
13478;BME280;12598;62.382;17.344;2023-10-09T02:40:44;101144.34;;;20.12;26.06
13478;BME280;12598;62.382;17.344;2023-10-09T02:42:15;101134.59;;;20.11;26.45
13478;BME280;12598;62.382;17.344;2023-10-09T02:43:17;101128.47;;;20.01;26.14
13478;BME280;12598;62.382;17.344;2023-10-09T02:44:19;101127.31;;;19.94;26.25
13478;BME280;12598;62.382;17.344;2023-10-09T02:45:26;101137.91;;;20.05;26.54
13478;BME280;12598;62.382;17.344;2023-10-09T02:46:36;101134.81;;;20.00;26.66
13478;BME280;12598;62.382;17.344;2023-10-09T02:47:38;101133.66;;;20.03;26.50
13478;BME280;12598;62.382;17.344;2023-10-09T02:48:41;101133.81;;;20.01;26.70
13478;BME280;12598;62.382;17.344;2023-10-09T02:49:55;101130.97;;;20.03;26.77
13478;BME280;12598;62.382;17.344;2023-10-09T02:51:08;101135.22;;;20.05;26.20
13478;BME280;12598;62.382;17.344;2023-10-09T02:52:18;101131.66;;;20.05;26.51
13478;BME280;12598;62.382;17.344;2023-10-09T02:53:34;101132.22;;;20.08;25.94
13478;BME280;12598;62.382;17.344;2023-10-09T02:54:39;101126.28;;;20.05;26.58
13478;BME280;12598;62.382;17.344;2023-10-09T02:55:44;101122.91;;;20.03;26.82
13478;BME280;12598;62.382;17.344;2023-10-09T02:56:55;101125.47;;;20.04;26.22
13478;BME280;12598;62.382;17.344;2023-10-09T02:57:58;101130.97;;;20.03;26.24
13478;BME280;12598;62.382;17.344;2023-10-09T02:59:12;101130.84;;;20.04;26.01
13478;BME280;12598;62.382;17.344;2023-10-09T03:00:14;101120.94;;;19.95;26.56
13478;BME280;12598;62.382;17.344;2023-10-09T03:01:21;101123.31;;;19.98;26.61
13478;BME280;12598;62.382;17.344;2023-10-09T03:02:23;101120.94;;;19.95;26.35
13478;BME280;12598;62.382;17.344;2023-10-09T03:03:25;101129.44;;;20.00;26.42
13478;BME280;12598;62.382;17.344;2023-10-09T03:04:29;101128.56;;;20.00;26.42
13478;BME280;12598;62.382;17.344;2023-10-09T03:05:33;101122.63;;;19.96;26.30
13478;BME280;12598;62.382;17.344;2023-10-09T03:06:35;101135.78;;;19.99;26.46
13478;BME280;12598;62.382;17.344;2023-10-09T03:07:44;101122.63;;;19.96;26.40
13478;BME280;12598;62.382;17.344;2023-10-09T03:08:46;101130.28;;;20.01;26.99
13478;BME280;12598;62.382;17.344;2023-10-09T03:09:48;101124.63;;;19.94;26.44
13478;BME280;12598;62.382;17.344;2023-10-09T03:10:51;101132.13;;;20.00;26.34
13478;BME280;12598;62.382;17.344;2023-10-09T03:11:55;101131.38;;;19.98;26.79
13478;BME280;12598;62.382;17.344;2023-10-09T03:12:57;101138.47;;;19.99;26.87
13478;BME280;12598;62.382;17.344;2023-10-09T03:14:01;101130.00;;;19.94;26.38
13478;BME280;12598;62.382;17.344;2023-10-09T03:15:06;101134.91;;;19.99;26.41
13478;BME280;12598;62.382;17.344;2023-10-09T03:16:11;101133.94;;;20.00;26.35
13478;BME280;12598;62.382;17.344;2023-10-09T03:17:23;101123.31;;;19.98;26.33
13478;BME280;12598;62.382;17.344;2023-10-09T03:18:25;101115.56;;;19.95;26.48
13478;BME280;12598;62.382;17.344;2023-10-09T03:19:28;101127.88;;;19.98;26.47
13478;BME280;12598;62.382;17.344;2023-10-09T03:20:33;101127.72;;;19.99;26.44
13478;BME280;12598;62.382;17.344;2023-10-09T03:21:36;101122.09;;;20.02;26.32
13478;BME280;12598;62.382;17.344;2023-10-09T03:22:41;101117.44;;;19.95;26.73
13478;BME280;12598;62.382;17.344;2023-10-09T03:23:45;101124.09;;;20.00;26.89
13478;BME280;12598;62.382;17.344;2023-10-09T03:24:51;101120.41;;;20.01;26.72
13478;BME280;12598;62.382;17.344;2023-10-09T03:25:54;101115.28;;;19.98;26.76
13478;BME280;12598;62.382;17.344;2023-10-09T03:27:11;101116.03;;;20.00;26.55
13478;BME280;12598;62.382;17.344;2023-10-09T03:28:13;101118.41;;;20.03;26.25
13478;BME280;12598;62.382;17.344;2023-10-09T03:29:16;101115.03;;;20.01;26.69
13478;BME280;12598;62.382;17.344;2023-10-09T03:30:21;101120.41;;;20.01;26.54
13478;BME280;12598;62.382;17.344;2023-10-09T03:31:25;101118.53;;;20.02;26.66
13478;BME280;12598;62.382;17.344;2023-10-09T03:32:28;101103.47;;;19.91;26.57
13478;BME280;12598;62.382;17.344;2023-10-09T03:33:30;101122.22;;;20.01;26.62
13478;BME280;12598;62.382;17.344;2023-10-09T03:34:34;101125.78;;;20.01;26.46
13478;BME280;12598;62.382;17.344;2023-10-09T03:35:36;101118.72;;;20.00;26.75
13478;BME280;12598;62.382;17.344;2023-10-09T03:36:39;101126.78;;;20.00;26.85
13478;BME280;12598;62.382;17.344;2023-10-09T03:37:41;101112.91;;;19.95;26.77
13478;BME280;12598;62.382;17.344;2023-10-09T03:38:43;101122.38;;;19.99;26.34
13478;BME280;12598;62.382;17.344;2023-10-09T03:39:45;101120.94;;;19.95;26.55
13478;BME280;12598;62.382;17.344;2023-10-09T03:40:48;101121.50;;;19.99;26.41
13478;BME280;12598;62.382;17.344;2023-10-09T03:41:51;101118.94;;;19.97;26.38
13478;BME280;12598;62.382;17.344;2023-10-09T03:42:53;101112.19;;;19.93;26.90
13478;BME280;12598;62.382;17.344;2023-10-09T03:43:55;101119.81;;;19.98;26.98
13478;BME280;12598;62.382;17.344;2023-10-09T03:44:57;101125.19;;;19.98;26.70
13478;BME280;12598;62.382;17.344;2023-10-09T03:45:59;101124.31;;;19.97;27.14
13478;BME280;12598;62.382;17.344;2023-10-09T03:47:04;101108.13;;;19.89;26.69
13478;BME280;12598;62.382;17.344;2023-10-09T03:48:06;101115.88;;;19.92;26.84
13478;BME280;12598;62.382;17.344;2023-10-09T03:49:23;101118.53;;;20.02;26.62
13478;BME280;12598;62.382;17.344;2023-10-09T03:50:28;101115.28;;;19.98;26.60
13478;BME280;12598;62.382;17.344;2023-10-09T03:51:37;101127.47;;;20.02;26.48
13478;BME280;12598;62.382;17.344;2023-10-09T03:52:41;101124.91;;;20.01;26.51
13478;BME280;12598;62.382;17.344;2023-10-09T03:53:43;101122.38;;;19.99;26.42
13478;BME280;12598;62.382;17.344;2023-10-09T03:54:45;101121.63;;;19.97;26.59
13478;BME280;12598;62.382;17.344;2023-10-09T03:55:51;101118.81;;;19.99;26.73
13478;BME280;12598;62.382;17.344;2023-10-09T03:56:53;101115.28;;;19.98;26.62
13478;BME280;12598;62.382;17.344;2023-10-09T03:57:56;101114.44;;;19.98;26.61
13478;BME280;12598;62.382;17.344;2023-10-09T03:59:02;101114.44;;;19.98;26.91
13478;BME280;12598;62.382;17.344;2023-10-09T04:00:06;101125.19;;;19.98;26.58
13478;BME280;12598;62.382;17.344;2023-10-09T04:01:14;101121.50;;;19.99;26.83
13478;BME280;12598;62.382;17.344;2023-10-09T04:02:24;101122.22;;;20.01;26.42
13478;BME280;12598;62.382;17.344;2023-10-09T04:03:26;101122.38;;;19.99;26.54
13478;BME280;12598;62.382;17.344;2023-10-09T04:04:28;101118.94;;;19.97;26.39
13478;BME280;12598;62.382;17.344;2023-10-09T04:05:30;101115.44;;;19.97;26.50
13478;BME280;12598;62.382;17.344;2023-10-09T04:06:33;101111.91;;;19.96;26.67
13478;BME280;12598;62.382;17.344;2023-10-09T04:07:35;101111.50;;;19.91;26.88
13478;BME280;12598;62.382;17.344;2023-10-09T04:08:37;101119.94;;;19.96;26.91
13478;BME280;12598;62.382;17.344;2023-10-09T04:09:41;101111.91;;;19.96;26.76
13478;BME280;12598;62.382;17.344;2023-10-09T04:10:46;101112.75;;;19.97;26.48
13478;BME280;12598;62.382;17.344;2023-10-09T04:11:59;101121.41;;;20.00;26.66
13478;BME280;12598;62.382;17.344;2023-10-09T04:13:12;101112.34;;;20.01;26.46
13478;BME280;12598;62.382;17.344;2023-10-09T04:14:19;101113.34;;;20.00;26.77
13478;BME280;12598;62.382;17.344;2023-10-09T04:15:27;101117.00;;;19.99;26.86
13478;BME280;12598;62.382;17.344;2023-10-09T04:16:32;101103.63;;;19.90;26.40
13478;BME280;12598;62.382;17.344;2023-10-09T04:17:34;101107.13;;;19.90;26.42
13478;BME280;12598;62.382;17.344;2023-10-09T04:18:37;101117.25;;;19.96;26.56
13478;BME280;12598;62.382;17.344;2023-10-09T04:19:40;101112.06;;;19.95;27.02
13478;BME280;12598;62.382;17.344;2023-10-09T04:20:50;101113.75;;;19.96;26.66
13478;BME280;12598;62.382;17.344;2023-10-09T04:22:24;101110.34;;;20.03;26.73
13478;BME280;12598;62.382;17.344;2023-10-09T04:23:29;101115.88;;;20.02;26.40
13478;BME280;12598;62.382;17.344;2023-10-09T04:24:38;101115.13;;;20.00;26.41
13478;BME280;12598;62.382;17.344;2023-10-09T04:25:46;101117.00;;;19.99;26.80
13478;BME280;12598;62.382;17.344;2023-10-09T04:26:52;101122.38;;;19.99;26.43
13478;BME280;12598;62.382;17.344;2023-10-09T04:28:00;101120.81;;;19.97;26.63
13478;BME280;12598;62.382;17.344;2023-10-09T04:29:15;101109.38;;;19.95;26.79
13478;BME280;12598;62.382;17.344;2023-10-09T04:30:39;101116.72;;;20.02;26.87
13478;BME280;12598;62.382;17.344;2023-10-09T04:31:49;101108.94;;;19.99;27.10
13478;BME280;12598;62.382;17.344;2023-10-09T04:32:53;101118.94;;;19.97;26.75
13478;BME280;12598;62.382;17.344;2023-10-09T04:34:05;101116.28;;;19.97;26.46
13478;BME280;12598;62.382;17.344;2023-10-09T04:35:30;101120.22;;;20.03;26.20
13478;BME280;12598;62.382;17.344;2023-10-09T04:36:32;101119.81;;;19.98;26.83
13478;BME280;12598;62.382;17.344;2023-10-09T04:37:48;101122.38;;;19.99;26.50
13478;BME280;12598;62.382;17.344;2023-10-09T04:38:53;101114.59;;;19.96;26.97
13478;BME280;12598;62.382;17.344;2023-10-09T04:40:22;101127.47;;;20.02;26.25
13478;BME280;12598;62.382;17.344;2023-10-09T04:41:39;101131.97;;;20.02;26.84
13478;BME280;12598;62.382;17.344;2023-10-09T04:42:43;101126.31;;;19.95;26.95
13478;BME280;12598;62.382;17.344;2023-10-09T04:44:00;101132.25;;;19.99;26.49
13478;BME280;12598;62.382;17.344;2023-10-09T04:45:21;101133.09;;;19.99;26.83
13478;BME280;12598;62.382;17.344;2023-10-09T04:46:46;101135.66;;;20.01;26.81
13478;BME280;12598;62.382;17.344;2023-10-09T04:48:24;101134.22;;;20.06;26.50
13478;BME280;12598;62.382;17.344;2023-10-09T04:49:36;101128.56;;;20.00;26.50
13478;BME280;12598;62.382;17.344;2023-10-09T04:50:50;101130.41;;;19.99;26.47
13478;BME280;12598;62.382;17.344;2023-10-09T04:52:10;101127.72;;;19.99;26.99
13478;BME280;12598;62.382;17.344;2023-10-09T04:53:20;101124.31;;;19.97;26.63
13478;BME280;12598;62.382;17.344;2023-10-09T04:54:25;101128.31;;;19.93;27.12
13478;BME280;12598;62.382;17.344;2023-10-09T04:55:41;101117.56;;;19.93;26.46
13478;BME280;12598;62.382;17.344;2023-10-09T04:56:45;101118.88;;;19.89;26.83
13478;BME280;12598;62.382;17.344;2023-10-09T04:57:53;101117.88;;;19.90;26.68
13478;BME280;12598;62.382;17.344;2023-10-09T04:59:11;101116.75;;;19.93;26.71
13478;BME280;12598;62.382;17.344;2023-10-09T05:00:19;101101.63;;;19.92;26.88
13478;BME280;12598;62.382;17.344;2023-10-09T05:01:28;101109.00;;;19.90;26.65
13478;BME280;12598;62.382;17.344;2023-10-09T05:02:45;101109.69;;;19.92;26.79
13478;BME280;12598;62.382;17.344;2023-10-09T05:03:56;101111.38;;;19.93;26.91
13478;BME280;12598;62.382;17.344;2023-10-09T05:05:05;101104.31;;;19.92;27.07
13478;BME280;12598;62.382;17.344;2023-10-09T05:06:39;101109.91;;;19.98;26.49
13478;BME280;12598;62.382;17.344;2023-10-09T05:07:45;101113.88;;;19.94;27.06
13478;BME280;12598;62.382;17.344;2023-10-09T05:08:56;101118.44;;;19.94;26.87
13478;BME280;12598;62.382;17.344;2023-10-09T05:10:09;101125.50;;;19.95;26.47
13478;BME280;12598;62.382;17.344;2023-10-09T05:11:25;101109.13;;;19.88;26.66
13478;BME280;12598;62.382;17.344;2023-10-09T05:12:54;101120.09;;;20.04;26.62
13478;BME280;12598;62.382;17.344;2023-10-09T05:13:59;101116.03;;;20.00;26.77
13478;BME280;12598;62.382;17.344;2023-10-09T05:15:14;101116.72;;;20.02;26.82
13478;BME280;12598;62.382;17.344;2023-10-09T05:16:17;101115.03;;;20.01;26.49
13478;BME280;12598;62.382;17.344;2023-10-09T05:17:35;101112.75;;;20.06;26.78
13478;BME280;12598;62.382;17.344;2023-10-09T05:18:41;101109.88;;;20.08;26.86
13478;BME280;12598;62.382;17.344;2023-10-09T05:19:43;101111.88;;;20.06;26.62
13478;BME280;12598;62.382;17.344;2023-10-09T05:20:56;101116.31;;;20.15;26.81
13478;BME280;12598;62.382;17.344;2023-10-09T05:22:11;101110.44;;;20.11;26.46
13478;BME280;12598;62.382;17.344;2023-10-09T05:23:31;101118.63;;;20.27;25.98
13478;BME280;12598;62.382;17.344;2023-10-09T05:24:45;101119.63;;;20.26;26.43
13478;BME280;12598;62.382;17.344;2023-10-09T05:25:49;101121.03;;;20.30;26.19
13478;BME280;12598;62.382;17.344;2023-10-09T05:27:00;101122.41;;;20.34;26.66
13478;BME280;12598;62.382;17.344;2023-10-09T05:28:29;101122.31;;;20.44;26.21
13478;BME280;12598;62.382;17.344;2023-10-09T05:29:33;101122.31;;;20.44;25.77
13478;BME280;12598;62.382;17.344;2023-10-09T05:30:35;101120.50;;;20.44;25.97
13478;BME280;12598;62.382;17.344;2023-10-09T05:31:43;101125.56;;;20.47;26.02
13478;BME280;12598;62.382;17.344;2023-10-09T05:33:17;101113.19;;;20.54;26.14
13478;BME280;12598;62.382;17.344;2023-10-09T05:34:35;101123.16;;;20.62;25.96
13478;BME280;12598;62.382;17.344;2023-10-09T05:36:01;101122.69;;;20.66;26.04
13478;BME280;12598;62.382;17.344;2023-10-09T05:37:22;101112.63;;;20.68;25.92
13478;BME280;12598;62.382;17.344;2023-10-09T05:38:27;101131.13;;;20.71;26.03
13478;BME280;12598;62.382;17.344;2023-10-09T05:39:32;101130.13;;;20.72;26.03
13478;BME280;12598;62.382;17.344;2023-10-09T05:40:43;101127.13;;;20.75;25.82
13478;BME280;12598;62.382;17.344;2023-10-09T05:41:47;101119.69;;;20.69;25.55
13478;BME280;12598;62.382;17.344;2023-10-09T05:43:09;101134.44;;;20.83;25.19
13478;BME280;12598;62.382;17.344;2023-10-09T05:44:31;101136.38;;;20.90;25.25
13478;BME280;12598;62.382;17.344;2023-10-09T05:45:52;101129.81;;;20.92;25.16
13478;BME280;12598;62.382;17.344;2023-10-09T05:47:17;101134.56;;;20.98;25.50
13478;BME280;12598;62.382;17.344;2023-10-09T05:48:33;101136.25;;;20.99;25.00
13478;BME280;12598;62.382;17.344;2023-10-09T05:49:55;101138.47;;;21.04;25.43
13478;BME280;12598;62.382;17.344;2023-10-09T05:51:04;101132.25;;;21.03;25.19
13478;BME280;12598;62.382;17.344;2023-10-09T05:52:14;101131.41;;;21.03;25.20